createdAt,value
2018-12-09T00:00:57.458Z,8.10
2018-12-09T00:10:53.618Z,8.20
2018-12-09T00:13:21.786Z,7.90
2018-12-09T00:18:18.175Z,7.90
2018-12-09T00:23:17.836Z,7.90
2018-12-09T00:25:46.051Z,8.20
2018-12-09T00:28:14.274Z,7.60
2018-12-09T00:33:14.308Z,8.00
2018-12-09T00:35:42.481Z,8.00
2018-12-09T00:38:10.672Z,8.10
2018-12-09T00:50:41.632Z,8.80
2018-12-09T00:58:06.253Z,9.30
2018-12-09T01:00:37.918Z,8.70
2018-12-09T01:03:06.120Z,8.70
2018-12-09T01:08:02.597Z,9.40
2018-12-09T01:13:02.122Z,8.60
2018-12-09T01:15:30.301Z,8.70
2018-12-09T01:17:58.507Z,8.70
2018-12-09T01:20:30.264Z,9.50
2018-12-09T01:22:58.472Z,8.60
2018-12-09T01:27:54.825Z,8.90
2018-12-09T01:30:26.717Z,9.10
2018-12-09T01:32:54.915Z,8.90
2018-12-09T01:35:23.476Z,8.90
2018-12-09T01:37:51.651Z,8.80
2018-12-09T01:40:23.285Z,8.80
2018-12-09T01:42:51.490Z,9.10
2018-12-09T01:45:19.702Z,9.90
2018-12-09T01:47:47.910Z,9.40
2018-12-09T01:50:19.515Z,9.40
2018-12-09T01:52:51.416Z,9.30
2018-12-09T01:55:19.569Z,9.30
2018-12-09T01:57:47.814Z,9.30
2018-12-09T02:00:19.641Z,9.20
2018-12-09T02:02:48.016Z,9.20
2018-12-09T02:05:16.203Z,9.20
2018-12-09T02:07:44.438Z,9.50
2018-12-09T02:10:16.129Z,9.30
2018-12-09T02:12:44.354Z,9.50
2018-12-09T02:15:12.570Z,9.40
2018-12-09T02:17:40.998Z,9.40
2018-12-09T02:20:12.209Z,9.70
2018-12-09T02:22:40.480Z,9.30
2018-12-09T02:25:08.714Z,9.50
2018-12-09T02:27:36.894Z,9.30
2018-12-09T02:32:36.328Z,9.40
2018-12-09T02:35:04.989Z,9.10
2018-12-09T02:37:33.141Z,9.40
2018-12-09T02:45:01.576Z,9.40
2018-12-09T02:49:58.153Z,9.30
2018-12-09T02:57:23.008Z,9.30
2018-12-09T02:59:51.267Z,9.30
2018-12-09T03:02:19.464Z,10.20
2018-12-09T03:04:47.663Z,9.50
2018-12-09T03:07:15.930Z,9.80
2018-12-09T03:17:09.018Z,9.80
2018-12-09T03:22:05.460Z,9.50
2018-12-09T03:24:33.662Z,9.50
2018-12-09T03:27:01.891Z,9.40
2018-12-09T03:29:30.053Z,9.60
2018-12-09T03:32:01.220Z,9.80
2018-12-09T03:34:29.506Z,9.60
2018-12-09T03:36:57.661Z,9.30
2018-12-09T03:39:25.858Z,9.30
2018-12-09T03:41:57.752Z,9.60
2018-12-09T03:44:25.956Z,9.40
2018-12-09T03:51:53.771Z,8.70
2018-12-09T03:54:21.950Z,8.60
2018-12-09T03:56:50.123Z,8.60
2018-12-09T03:59:18.292Z,8.90
2018-12-09T04:01:49.482Z,9.20
2018-12-09T04:04:17.671Z,9.00
2018-12-09T04:06:45.854Z,8.70
2018-12-09T04:09:14.330Z,8.10
2018-12-09T04:11:46.089Z,9.10
2018-12-09T04:14:14.255Z,8.50
2018-12-09T04:16:42.543Z,8.30
2018-12-09T04:19:10.733Z,8.10
2018-12-09T04:21:42.415Z,7.70
2018-12-09T04:24:10.614Z,8.20
2018-12-09T04:29:06.981Z,8.50
2018-12-09T04:31:38.950Z,7.90
2018-12-09T04:34:07.149Z,8.00
2018-12-09T04:36:35.334Z,7.80
2018-12-09T04:39:04.708Z,7.90
2018-12-09T04:41:39.317Z,8.10
2018-12-09T04:44:07.498Z,7.90
2018-12-09T04:46:35.728Z,8.20
2018-12-09T04:51:55.201Z,8.40
2018-12-09T04:56:52.494Z,8.20
2018-12-09T04:59:20.839Z,8.20
2018-12-09T05:01:52.457Z,9.10
2018-12-09T05:04:20.627Z,8.00
2018-12-09T05:11:48.501Z,8.30
2018-12-09T05:14:16.687Z,8.20
2018-12-09T05:19:13.014Z,8.30
2018-12-09T05:24:12.827Z,8.30
2018-12-09T05:34:09.014Z,8.60
2018-12-09T05:39:06.018Z,8.40
2018-12-09T05:41:37.722Z,8.50
2018-12-09T05:44:05.870Z,8.60
2018-12-09T05:46:34.353Z,8.10
2018-12-09T05:49:02.505Z,8.20
2018-12-09T05:51:34.042Z,8.40
2018-12-09T05:54:02.218Z,7.80
2018-12-09T05:58:58.948Z,8.00
2018-12-09T06:01:30.690Z,7.70
2018-12-09T06:03:58.850Z,7.90
2018-12-09T06:06:27.455Z,8.00
2018-12-09T06:08:56.059Z,7.90
2018-12-09T06:13:55.731Z,7.90
2018-12-09T06:16:23.965Z,8.00
2018-12-09T06:21:27.061Z,8.20
2018-12-09T06:23:55.262Z,8.20
2018-12-09T06:26:23.465Z,8.10
2018-12-09T06:28:51.609Z,8.00
2018-12-09T06:31:22.922Z,8.00
2018-12-09T06:33:51.069Z,8.00
2018-12-09T06:36:19.271Z,8.80
2018-12-09T06:38:47.428Z,7.90
2018-12-09T06:41:18.571Z,7.90
2018-12-09T06:43:46.716Z,7.90
2018-12-09T06:46:14.898Z,7.90
2018-12-09T06:53:42.468Z,8.10
2018-12-09T06:56:10.666Z,8.00
2018-12-09T06:58:38.842Z,8.40
2018-12-09T07:01:10.205Z,8.00
2018-12-09T07:03:38.357Z,8.10
2018-12-09T07:06:06.583Z,8.10
2018-12-09T07:08:34.747Z,8.30
2018-12-09T07:11:06.614Z,7.90
2018-12-09T07:16:03.102Z,8.20
2018-12-09T07:25:58.858Z,7.80
2018-12-09T07:28:27.043Z,8.00
2018-12-09T07:31:04.014Z,8.10
2018-12-09T07:38:28.601Z,8.20
2018-12-09T07:41:00.498Z,8.40
2018-12-09T07:45:56.871Z,8.20
2018-12-09T07:48:25.066Z,8.30
2018-12-09T07:50:59.604Z,8.20
2018-12-09T07:53:28.010Z,8.40
2018-12-09T07:55:56.169Z,8.30
2018-12-09T08:00:56.134Z,8.40
2018-12-09T08:03:24.321Z,8.80
2018-12-09T08:08:20.758Z,8.50
2018-12-09T08:13:20.026Z,8.70
2018-12-09T08:15:48.164Z,8.50
2018-12-09T08:18:16.331Z,8.80
2018-12-09T08:20:47.407Z,8.70
2018-12-09T08:25:43.811Z,9.10
2018-12-09T08:28:11.967Z,8.60
2018-12-09T08:30:43.851Z,9.10
2018-12-09T08:33:12.082Z,8.90
2018-12-09T08:35:40.225Z,9.00
2018-12-09T08:38:08.446Z,9.20
2018-12-09T08:40:40.327Z,9.30
2018-12-09T08:48:04.918Z,9.20
2018-12-09T08:50:36.485Z,9.40
2018-12-09T08:53:04.684Z,9.40
2018-12-09T08:55:33.003Z,9.50
2018-12-09T08:58:01.173Z,9.40
2018-12-09T09:00:33.125Z,9.60
2018-12-09T09:07:57.666Z,10.30
2018-12-09T09:12:57.882Z,9.70
2018-12-09T09:20:26.144Z,9.90
2018-12-09T09:22:54.309Z,9.90
2018-12-09T09:30:25.173Z,9.80
2018-12-09T09:32:53.336Z,9.80
2018-12-09T09:35:21.515Z,9.70
2018-12-09T09:37:49.681Z,10.60
2018-12-09T09:40:21.471Z,10.00
2018-12-09T09:42:49.670Z,9.70
2018-12-09T09:45:17.918Z,9.80
2018-12-09T09:47:46.158Z,9.90
2018-12-09T09:50:17.936Z,9.40
2018-12-09T09:52:46.137Z,9.90
2018-12-09T09:55:14.345Z,9.90
2018-12-09T09:57:42.508Z,9.60
2018-12-09T10:03:01.803Z,10.40
2018-12-09T10:05:30.024Z,9.90
2018-12-09T10:07:58.212Z,9.70
2018-12-09T10:10:41.618Z,10.40
2018-12-09T10:15:38.029Z,9.70
2018-12-09T10:23:06.064Z,9.90
2018-12-09T10:28:02.421Z,9.80
2018-12-09T10:30:33.872Z,9.70
2018-12-09T10:33:02.094Z,9.70
2018-12-09T10:37:58.413Z,9.70
2018-12-09T10:40:29.966Z,10.40
2018-12-09T10:45:26.313Z,9.90
2018-12-09T10:47:54.509Z,10.20
2018-12-09T10:55:22.382Z,10.70
2018-12-09T11:03:20.303Z,10.00
2018-12-09T11:05:48.453Z,9.90
2018-12-09T11:13:36.456Z,9.80
2018-12-09T11:16:05.264Z,10.00
2018-12-09T11:18:33.702Z,10.00
2018-12-09T11:21:15.208Z,9.90
2018-12-09T11:26:11.700Z,9.70
2018-12-09T11:28:39.904Z,9.90
2018-12-09T11:31:09.640Z,9.50
2018-12-09T11:38:34.330Z,9.70
2018-12-09T11:45:59.868Z,9.50
2018-12-09T11:48:28.011Z,9.60
2018-12-09T11:51:21.715Z,9.90
2018-12-09T11:58:46.519Z,9.60
2018-12-09T12:01:21.337Z,9.50
2018-12-09T12:03:49.514Z,9.50
2018-12-09T12:06:17.690Z,9.60
2018-12-09T12:08:45.962Z,9.70
2018-12-09T12:16:24.734Z,9.70
2018-12-09T12:18:52.884Z,9.80
2018-12-09T12:23:52.402Z,9.60
2018-12-09T12:28:48.830Z,9.40
2018-12-09T12:36:14.073Z,9.10
2018-12-09T12:38:42.251Z,9.40
2018-12-09T12:41:11.763Z,9.80
2018-12-09T12:46:08.237Z,8.90
2018-12-09T12:48:36.478Z,8.50
2018-12-09T12:51:19.642Z,8.30
2018-12-09T12:58:44.307Z,8.30
2018-12-09T13:06:50.237Z,8.60
2018-12-09T13:09:18.385Z,8.10
2018-12-09T13:19:17.699Z,8.90
2018-12-09T13:24:15.225Z,9.40
2018-12-09T13:26:43.456Z,9.00
2018-12-09T13:37:22.954Z,9.00
2018-12-09T13:39:51.104Z,8.60
2018-12-09T13:42:19.335Z,9.10
2018-12-09T13:44:47.520Z,9.40
2018-12-09T13:47:15.758Z,9.20
2018-12-09T13:49:43.946Z,8.90
2018-12-09T13:54:40.496Z,8.80
2018-12-09T13:59:37.673Z,9.50
2018-12-09T14:02:05.926Z,9.40
2018-12-09T14:04:34.115Z,9.10
2018-12-09T14:07:02.288Z,9.30
2018-12-09T14:09:30.466Z,9.30
2018-12-09T14:17:08.050Z,8.90
2018-12-09T14:24:45.851Z,9.10
2018-12-09T14:27:14.015Z,8.80
2018-12-09T14:32:10.827Z,9.20
2018-12-09T14:39:35.823Z,8.80
2018-12-09T14:42:04.087Z,8.90
2018-12-09T14:44:32.311Z,8.60
2018-12-09T14:47:00.477Z,8.90
2018-12-09T14:49:28.625Z,9.00
2018-12-09T14:52:09.662Z,8.80
2018-12-09T14:57:05.975Z,8.90
2018-12-09T14:59:34.193Z,9.40
2018-12-09T15:07:34.499Z,9.10
2018-12-09T15:10:09.378Z,9.10
2018-12-09T15:15:06.041Z,9.20
2018-12-09T15:17:34.208Z,8.70
2018-12-09T15:22:32.875Z,8.60
2018-12-09T15:25:01.017Z,9.00
2018-12-09T15:27:29.222Z,8.80
2018-12-09T15:29:57.393Z,8.80
2018-12-09T15:32:25.583Z,9.30
2018-12-09T15:34:53.750Z,8.50
2018-12-09T15:37:21.913Z,8.80
2018-12-09T15:42:20.580Z,8.80
2018-12-09T15:44:48.778Z,8.70
2018-12-09T15:47:16.983Z,8.50
2018-12-09T15:49:48.150Z,9.10
2018-12-09T16:09:33.999Z,8.40
2018-12-09T16:12:05.283Z,8.30
2018-12-09T16:24:38.850Z,7.90
2018-12-09T16:27:06.989Z,8.50
2018-12-09T16:29:35.165Z,8.00
2018-12-09T16:32:03.340Z,8.20
2018-12-09T16:34:31.485Z,8.40
2018-12-09T16:36:59.660Z,8.10
2018-12-09T16:39:27.843Z,7.90
2018-12-09T17:04:41.086Z,8.10
2018-12-09T17:07:09.222Z,8.20
2018-12-09T17:12:05.601Z,8.00
2018-12-09T17:14:33.793Z,7.80
2018-12-09T17:17:01.983Z,7.80
2018-12-09T17:24:39.335Z,8.20
2018-12-09T17:29:48.822Z,8.20
2018-12-09T17:42:09.889Z,8.30
2018-12-09T17:47:06.301Z,8.30
2018-12-09T17:49:34.522Z,8.20
2018-12-09T17:52:19.046Z,8.00
2018-12-09T17:57:15.501Z,7.80
2018-12-09T17:59:43.694Z,7.80
2018-12-09T18:04:40.228Z,8.00
2018-12-09T18:07:08.409Z,8.20
2018-12-09T18:09:36.601Z,7.80
2018-12-09T18:14:32.970Z,8.30
2018-12-09T18:17:01.171Z,8.00
2018-12-09T18:19:29.342Z,8.00
2018-12-09T18:22:10.262Z,7.90
2018-12-09T18:29:34.912Z,7.90
2018-12-09T18:32:16.658Z,8.10
2018-12-09T18:37:13.604Z,8.10
2018-12-09T18:39:41.856Z,7.90
2018-12-09T18:42:10.060Z,8.00
2018-12-09T18:44:38.243Z,7.90
2018-12-09T18:47:06.412Z,8.00
2018-12-09T18:49:34.575Z,8.20
2018-12-09T18:54:36.636Z,7.90
2018-12-09T18:57:04.863Z,8.00
2018-12-09T19:04:44.414Z,8.10
2018-12-09T19:07:12.749Z,8.20
2018-12-09T19:09:40.942Z,7.90
2018-12-09T19:12:22.459Z,7.90
2018-12-09T19:14:50.643Z,8.10
2018-12-09T19:17:18.828Z,7.80
2018-12-09T19:19:46.976Z,7.80
2018-12-09T19:22:15.132Z,7.80
2018-12-09T19:24:43.306Z,8.70
2018-12-09T19:27:11.469Z,8.00
2018-12-09T19:32:07.834Z,8.10
2018-12-09T19:44:41.228Z,8.00
2018-12-09T19:47:09.418Z,7.90
2018-12-09T19:52:05.796Z,8.20
2018-12-09T19:54:33.979Z,8.80
2018-12-09T19:57:02.199Z,7.90
2018-12-09T20:04:39.765Z,8.20
2018-12-09T20:07:07.938Z,7.80
2018-12-09T20:09:36.122Z,7.80
2018-12-09T20:24:38.438Z,7.70
2018-12-09T20:27:06.593Z,7.60
2018-12-09T20:29:34.760Z,7.90
2018-12-09T20:34:44.041Z,8.20
2018-12-09T20:37:12.284Z,7.30
2018-12-09T20:39:40.496Z,7.80
2018-12-09T20:47:05.148Z,7.50
2018-12-09T20:54:58.068Z,7.60
2018-12-09T20:57:26.228Z,7.70
2018-12-09T20:59:54.418Z,7.70
2018-12-09T21:02:22.593Z,7.70
2018-12-09T21:09:47.072Z,7.50
2018-12-09T21:12:15.258Z,7.60
2018-12-09T21:14:43.542Z,7.60
2018-12-09T21:17:11.701Z,7.60
2018-12-09T21:24:37.740Z,7.20
2018-12-09T21:27:10.881Z,7.50
2018-12-09T21:29:42.181Z,7.80
2018-12-09T21:34:41.721Z,8.00
2018-12-09T21:37:09.966Z,7.10
2018-12-09T21:39:38.249Z,7.00
2018-12-09T21:42:06.441Z,7.40
2018-12-09T21:47:08.596Z,7.50
2018-12-09T22:04:40.438Z,7.40
2018-12-09T22:07:08.612Z,7.60
2018-12-09T22:09:37.382Z,7.20
2018-12-09T22:14:33.817Z,7.20
2018-12-09T22:27:38.876Z,7.40
2018-12-09T22:32:38.589Z,7.20
2018-12-09T22:35:07.160Z,7.10
2018-12-09T22:37:35.298Z,7.40
2018-12-09T22:40:16.067Z,7.10
2018-12-09T22:47:40.651Z,7.30
2018-12-09T22:50:25.351Z,7.20
2018-12-09T22:52:53.521Z,7.00
2018-12-09T22:57:49.882Z,7.10
2018-12-09T23:00:30.932Z,7.90
2018-12-09T23:20:48.722Z,7.20
2018-12-09T23:30:55.938Z,7.10
2018-12-09T23:33:24.091Z,7.00
2018-12-09T23:35:52.241Z,7.20
2018-12-09T23:38:20.387Z,7.10
2018-12-09T23:41:01.500Z,7.10
2018-12-09T23:43:29.675Z,7.30
2018-12-09T23:45:57.846Z,7.70
2018-12-09T23:53:26.209Z,7.10
2018-12-09T23:58:22.614Z,7.30
